createdAt,value
2023-03-02T00:01:09.520Z,33.80
2023-03-02T00:03:38.411Z,29.90
2023-03-02T00:06:06.522Z,37.90
2023-03-02T00:08:35.075Z,33.00
2023-03-02T00:11:03.133Z,39.30
2023-03-02T00:13:31.101Z,37.20
2023-03-02T00:15:59.223Z,34.70
2023-03-02T00:18:27.449Z,35.60
2023-03-02T00:20:55.827Z,33.30
2023-03-02T00:23:24.006Z,33.50
2023-03-02T00:25:52.310Z,40.90
2023-03-02T00:28:20.416Z,34.40
2023-03-02T00:30:48.383Z,31.80
2023-03-02T00:33:16.297Z,40.40
2023-03-02T00:35:44.435Z,40.70
2023-03-02T00:38:13.325Z,43.30
2023-03-02T00:40:49.024Z,34.40
2023-03-02T00:43:17.092Z,35.90
2023-03-02T00:45:45.154Z,34.00
2023-03-02T00:48:13.195Z,37.60
2023-03-02T00:50:41.346Z,36.90
2023-03-02T00:53:09.755Z,29.20
2023-03-02T00:55:37.954Z,36.30
2023-03-02T00:58:06.786Z,45.80
2023-03-02T01:00:35.721Z,38.20
2023-03-02T01:03:06.404Z,33.10
2023-03-02T01:05:36.880Z,33.10
2023-03-02T01:08:05.371Z,35.80
2023-03-02T01:10:33.647Z,46.00
2023-03-02T01:13:01.816Z,43.50
2023-03-02T01:15:29.880Z,45.50
2023-03-02T01:17:57.769Z,38.40
2023-03-02T01:20:25.976Z,33.80
2023-03-02T01:22:53.913Z,42.90
2023-03-02T01:25:21.962Z,28.90
2023-03-02T01:27:49.906Z,38.80
2023-03-02T01:30:17.902Z,35.80
2023-03-02T01:32:46.093Z,33.40
2023-03-02T01:35:14.760Z,34.60
2023-03-02T01:37:42.957Z,32.30
2023-03-02T01:40:13.648Z,32.20
2023-03-02T01:42:47.179Z,44.20
2023-03-02T01:45:46.615Z,43.20
2023-03-02T01:48:18.484Z,35.60
2023-03-02T01:50:46.659Z,38.60
2023-03-02T01:53:15.390Z,39.10
2023-03-02T01:55:44.281Z,39.90
2023-03-02T01:58:13.786Z,42.10
2023-03-02T02:00:41.862Z,31.40
2023-03-02T02:03:13.028Z,44.40
2023-03-02T02:05:42.800Z,31.50
2023-03-02T02:08:10.883Z,31.50
2023-03-02T02:10:39.312Z,39.00
2023-03-02T02:13:11.332Z,37.70
2023-03-02T02:15:39.395Z,39.80
2023-03-02T02:18:07.466Z,41.10
2023-03-02T02:20:41.122Z,44.80
2023-03-02T02:23:29.598Z,51.90
2023-03-02T02:26:07.224Z,33.30
2023-03-02T02:28:48.452Z,42.10
2023-03-02T02:31:18.211Z,35.50
2023-03-02T02:33:51.088Z,51.60
2023-03-02T02:36:20.899Z,49.60
2023-03-02T02:38:50.764Z,62.30
2023-03-02T02:41:22.069Z,43.70
2023-03-02T02:43:51.114Z,45.10
2023-03-02T02:46:19.198Z,35.00
2023-03-02T02:48:47.401Z,50.60
2023-03-02T02:51:18.973Z,52.10
2023-03-02T02:54:00.679Z,46.30
2023-03-02T02:56:37.252Z,45.30
2023-03-02T02:59:40.056Z,48.40
2023-03-02T03:02:15.261Z,41.40
2023-03-02T03:04:43.773Z,47.60
2023-03-02T03:07:16.602Z,52.90
2023-03-02T03:09:44.912Z,50.10
2023-03-02T03:12:18.139Z,40.40
2023-03-02T03:14:46.254Z,64.50
2023-03-02T03:17:14.368Z,53.70
2023-03-02T03:19:51.172Z,45.70
2023-03-02T03:22:19.833Z,47.70
2023-03-02T03:24:49.150Z,55.50
2023-03-02T03:27:17.565Z,56.20
2023-03-02T03:29:48.316Z,58.00
2023-03-02T03:32:17.721Z,71.20
2023-03-02T03:34:46.045Z,85.10
2023-03-02T03:37:20.485Z,119.10
2023-03-02T03:39:48.964Z,84.40
2023-03-02T03:42:18.112Z,67.90
2023-03-02T03:44:46.558Z,72.00
2023-03-02T03:47:14.672Z,72.00
2023-03-02T03:49:43.191Z,65.40
2023-03-02T03:52:12.285Z,66.90
2023-03-02T03:54:40.665Z,75.00
2023-03-02T03:57:10.886Z,78.70
2023-03-02T03:59:39.172Z,70.70
2023-03-02T04:02:08.566Z,74.00
2023-03-02T04:04:42.677Z,49.90
2023-03-02T04:07:14.566Z,41.90
2023-03-02T04:09:44.037Z,50.60
2023-03-02T04:12:13.959Z,39.40
2023-03-02T04:14:51.658Z,34.00
2023-03-02T04:17:19.720Z,41.80
2023-03-02T04:19:49.938Z,28.50
2023-03-02T04:22:19.135Z,37.70
2023-03-02T04:24:48.383Z,33.90
2023-03-02T04:27:16.966Z,34.50
2023-03-02T04:29:45.139Z,31.20
2023-03-02T04:32:15.002Z,31.20
2023-03-02T04:34:44.990Z,29.50
2023-03-02T04:37:13.449Z,30.10
2023-03-02T04:39:42.382Z,29.50
2023-03-02T04:42:10.375Z,26.50
2023-03-02T04:44:38.443Z,27.80
2023-03-02T04:47:06.462Z,28.70
2023-03-02T04:49:34.594Z,30.70
2023-03-02T04:52:02.866Z,25.90
2023-03-02T04:54:31.246Z,27.90
2023-03-02T04:56:59.317Z,29.70
2023-03-02T04:59:27.814Z,25.80
2023-03-02T05:01:58.049Z,33.50
2023-03-02T05:04:26.981Z,29.90
2023-03-02T05:06:55.082Z,32.90
2023-03-02T05:09:27.452Z,30.10
2023-03-02T05:11:56.159Z,28.10
2023-03-02T05:14:24.326Z,23.20
2023-03-02T05:16:52.452Z,32.50
2023-03-02T05:19:20.462Z,30.70
2023-03-02T05:21:49.043Z,27.20
2023-03-02T05:24:17.214Z,28.40
2023-03-02T05:26:45.389Z,28.10
2023-03-02T05:29:13.331Z,33.20
2023-03-02T05:31:43.537Z,26.90
2023-03-02T05:34:13.015Z,27.40
2023-03-02T05:36:41.268Z,27.40
2023-03-02T05:39:09.532Z,25.90
2023-03-02T05:41:37.808Z,31.20
2023-03-02T05:44:09.514Z,27.50
2023-03-02T05:46:38.018Z,35.00
2023-03-02T05:49:06.235Z,29.10
2023-03-02T05:51:34.497Z,34.90
2023-03-02T05:54:02.537Z,30.10
2023-03-02T05:56:31.016Z,22.70
2023-03-02T05:59:10.295Z,29.30
2023-03-02T06:01:38.978Z,26.90
2023-03-02T06:04:07.338Z,27.70
2023-03-02T06:06:35.855Z,29.90
2023-03-02T06:09:04.411Z,28.40
2023-03-02T06:11:32.415Z,27.30
2023-03-02T06:14:00.386Z,28.20
2023-03-02T06:16:28.477Z,25.40
2023-03-02T06:18:56.588Z,39.60
2023-03-02T06:21:24.755Z,27.10
2023-03-02T06:23:52.835Z,29.30
2023-03-02T06:26:20.826Z,33.50
2023-03-02T06:28:53.268Z,32.50
2023-03-02T06:31:22.245Z,33.80
2023-03-02T06:33:50.438Z,26.70
2023-03-02T06:36:18.620Z,27.80
2023-03-02T06:38:46.917Z,31.60
2023-03-02T06:41:15.474Z,36.40
2023-03-02T06:43:43.547Z,26.70
2023-03-02T06:46:12.064Z,30.30
2023-03-02T06:48:40.405Z,25.30
2023-03-02T06:51:08.436Z,24.80
2023-03-02T06:53:36.548Z,34.60
2023-03-02T06:56:05.140Z,26.30
2023-03-02T06:58:33.404Z,23.20
2023-03-02T07:01:01.530Z,30.50
2023-03-02T07:03:29.817Z,41.80
2023-03-02T07:05:57.922Z,28.50
2023-03-02T07:08:26.314Z,26.70
2023-03-02T07:10:54.378Z,28.70
2023-03-02T07:13:22.439Z,26.80
2023-03-02T07:15:50.445Z,31.30
2023-03-02T07:18:19.140Z,30.00
2023-03-02T07:20:47.398Z,26.00
2023-03-02T07:23:15.359Z,29.40
2023-03-02T07:25:43.363Z,28.50
2023-03-02T07:28:11.927Z,40.30
2023-03-02T07:30:40.292Z,25.00
2023-03-02T07:33:08.338Z,32.70
2023-03-02T07:35:37.494Z,34.40
2023-03-02T07:38:05.786Z,30.50
2023-03-02T07:40:34.202Z,36.60
2023-03-02T07:43:02.270Z,25.00
2023-03-02T07:45:30.295Z,39.70
2023-03-02T07:47:58.406Z,35.60
2023-03-02T07:50:26.582Z,78.50
2023-03-02T07:52:54.651Z,54.60
2023-03-02T07:55:22.824Z,61.30
2023-03-02T07:57:50.773Z,44.10
2023-03-02T08:00:19.597Z,30.50
2023-03-02T08:02:47.675Z,40.90
2023-03-02T08:05:16.998Z,38.80
2023-03-02T08:07:46.714Z,35.20
2023-03-02T08:10:14.740Z,40.90
2023-03-02T08:12:45.774Z,42.40
2023-03-02T08:15:13.845Z,38.20
2023-03-02T08:17:41.859Z,31.90
2023-03-02T08:20:10.552Z,29.10
2023-03-02T08:22:38.519Z,43.10
2023-03-02T08:25:07.564Z,36.30
2023-03-02T08:27:35.844Z,37.70
2023-03-02T08:30:23.263Z,29.30
2023-03-02T08:32:54.093Z,41.00
2023-03-02T08:35:22.363Z,39.00
2023-03-02T08:37:50.553Z,44.30
2023-03-02T08:40:18.622Z,42.30
2023-03-02T08:42:46.721Z,47.00
2023-03-02T08:45:14.764Z,44.00
2023-03-02T08:47:42.737Z,43.20
2023-03-02T08:50:11.521Z,49.70
2023-03-02T08:52:39.590Z,47.00
2023-03-02T08:55:09.139Z,49.80
2023-03-02T08:57:37.496Z,53.00
2023-03-02T09:00:09.240Z,53.60
2023-03-02T09:02:37.269Z,49.30
2023-03-02T09:05:05.783Z,49.80
2023-03-02T09:07:34.011Z,48.20
2023-03-02T09:10:02.782Z,43.50
2023-03-02T09:12:31.178Z,39.00
2023-03-02T09:14:59.293Z,41.50
2023-03-02T09:17:27.443Z,41.20
2023-03-02T09:19:55.744Z,40.20
2023-03-02T09:22:24.226Z,38.90
2023-03-02T09:24:52.418Z,33.60
2023-03-02T09:27:20.893Z,25.30
2023-03-02T09:29:49.463Z,22.30
2023-03-02T09:32:18.014Z,20.80
2023-03-02T09:34:46.324Z,18.90
2023-03-02T09:37:14.454Z,16.00
2023-03-02T09:39:42.670Z,25.20
2023-03-02T09:42:52.942Z,13.00
2023-03-02T09:46:08.493Z,15.90
2023-03-02T09:49:11.367Z,19.10
2023-03-02T09:51:42.301Z,15.20
2023-03-02T09:54:12.702Z,15.20
2023-03-02T09:56:50.871Z,15.80
2023-03-02T09:59:28.279Z,15.50
2023-03-02T10:01:58.178Z,13.70
2023-03-02T10:04:38.855Z,16.10
2023-03-02T10:07:30.876Z,12.60
2023-03-02T10:10:36.490Z,16.80
2023-03-02T10:13:22.933Z,15.40
2023-03-02T10:16:23.304Z,15.90
2023-03-02T10:19:27.248Z,15.00
2023-03-02T10:22:08.858Z,15.90
2023-03-02T10:24:57.102Z,16.40
2023-03-02T10:27:30.179Z,15.60
2023-03-02T10:30:22.308Z,15.50
2023-03-02T10:32:51.604Z,14.30
2023-03-02T10:35:24.409Z,15.30
2023-03-02T10:38:00.980Z,15.60
2023-03-02T10:40:42.106Z,12.60
2023-03-02T10:43:24.358Z,15.70
2023-03-02T10:46:09.519Z,15.70
2023-03-02T10:49:20.952Z,18.50
2023-03-02T10:52:02.238Z,11.30
2023-03-02T10:54:31.889Z,12.60
2023-03-02T10:57:01.862Z,14.60
2023-03-02T10:59:46.884Z,13.80
2023-03-02T11:02:15.174Z,16.30
2023-03-02T11:04:43.508Z,16.10
2023-03-02T11:07:22.350Z,16.00
2023-03-02T11:10:17.357Z,11.70
2023-03-02T11:12:47.118Z,15.10
2023-03-02T11:15:50.514Z,11.50
2023-03-02T11:18:24.857Z,14.80
2023-03-02T11:20:55.839Z,11.80
2023-03-02T11:23:45.616Z,16.00
2023-03-02T11:26:40.221Z,11.80
2023-03-02T11:29:18.338Z,13.40
2023-03-02T11:31:53.955Z,10.70
2023-03-02T11:34:27.673Z,11.50
2023-03-02T11:37:18.343Z,11.50
2023-03-02T11:39:55.624Z,12.30
2023-03-02T11:42:32.391Z,13.90
2023-03-02T11:45:15.569Z,14.50
2023-03-02T11:48:02.092Z,13.20
2023-03-02T11:50:33.051Z,12.90
2023-03-02T11:53:04.250Z,12.40
2023-03-02T11:55:36.542Z,20.20
2023-03-02T11:58:04.893Z,14.60
2023-03-02T12:00:40.681Z,15.20
2023-03-02T12:03:35.249Z,13.60
2023-03-02T12:06:07.289Z,16.70
2023-03-02T12:08:42.263Z,11.50
2023-03-02T12:11:16.763Z,13.40
2023-03-02T12:13:54.565Z,15.50
2023-03-02T12:16:32.904Z,11.70
2023-03-02T12:19:28.682Z,11.40
2023-03-02T12:22:00.565Z,15.30
2023-03-02T12:24:33.947Z,14.50
2023-03-02T12:27:02.547Z,14.60
2023-03-02T12:29:46.506Z,14.20
2023-03-02T12:32:26.147Z,12.20
2023-03-02T12:35:08.529Z,12.80
2023-03-02T12:37:50.012Z,12.90
2023-03-02T12:40:26.000Z,12.40
2023-03-02T12:43:09.639Z,12.60
2023-03-02T12:46:16.637Z,15.90
2023-03-02T12:48:46.829Z,12.00
2023-03-02T12:51:22.361Z,14.00
2023-03-02T12:53:56.766Z,15.20
2023-03-02T12:56:25.870Z,17.10
2023-03-02T12:58:54.349Z,14.00
2023-03-02T13:01:24.829Z,16.90
2023-03-02T13:03:53.829Z,16.30
2023-03-02T13:06:23.875Z,13.00
2023-03-02T13:08:54.862Z,11.20
2023-03-02T13:11:28.109Z,14.50
2023-03-02T13:13:56.812Z,12.90
2023-03-02T13:16:29.918Z,12.90
2023-03-02T13:18:59.922Z,13.10
2023-03-02T13:21:37.870Z,16.40
2023-03-02T13:24:36.196Z,17.30
2023-03-02T13:27:06.561Z,12.10
2023-03-02T13:29:34.791Z,12.70
2023-03-02T13:32:22.138Z,12.70
2023-03-02T13:34:56.099Z,13.10
2023-03-02T13:38:37.235Z,14.50
2023-03-02T13:41:37.986Z,13.70
2023-03-02T13:44:24.506Z,12.40
2023-03-02T13:46:59.123Z,12.40
2023-03-02T13:49:52.204Z,15.50
2023-03-02T13:52:48.425Z,11.50
2023-03-02T13:55:42.004Z,13.90
2023-03-02T13:58:33.415Z,9.50
2023-03-02T14:01:02.178Z,17.90
2023-03-02T14:03:31.212Z,12.00
2023-03-02T14:05:59.929Z,16.40
2023-03-02T14:08:33.650Z,11.40
2023-03-02T14:11:16.050Z,11.50
2023-03-02T14:13:53.105Z,12.90
2023-03-02T14:16:21.344Z,11.50
2023-03-02T14:18:50.285Z,15.80
2023-03-02T14:21:20.714Z,19.20
2023-03-02T14:23:49.213Z,14.30
2023-03-02T14:26:20.685Z,11.80
2023-03-02T14:28:53.599Z,11.60
2023-03-02T14:31:28.338Z,14.70
2023-03-02T14:33:56.594Z,17.70
2023-03-02T14:36:34.008Z,53.10
2023-03-02T14:39:04.129Z,15.40
2023-03-02T14:41:38.308Z,15.80
2023-03-02T14:44:11.002Z,11.00
2023-03-02T14:46:39.371Z,12.70
2023-03-02T14:49:07.983Z,14.60
2023-03-02T14:51:36.684Z,13.90
2023-03-02T14:54:05.881Z,17.90
2023-03-02T14:56:34.040Z,14.50
2023-03-02T14:59:13.070Z,14.80
2023-03-02T15:01:42.073Z,13.90
2023-03-02T15:04:10.329Z,12.30
2023-03-02T15:06:39.786Z,12.80
2023-03-02T15:09:08.637Z,13.30
2023-03-02T15:11:36.911Z,15.00
2023-03-02T15:14:05.401Z,14.80
2023-03-02T15:16:33.708Z,15.30
2023-03-02T15:19:02.047Z,14.10
2023-03-02T15:21:30.083Z,19.30
2023-03-02T15:23:58.302Z,13.10
2023-03-02T15:26:26.668Z,13.40
2023-03-02T15:28:55.495Z,15.70
2023-03-02T15:31:23.654Z,14.80
2023-03-02T15:33:52.182Z,13.40
2023-03-02T15:36:20.904Z,12.90
2023-03-02T15:38:51.427Z,14.70
2023-03-02T15:41:19.905Z,15.00
2023-03-02T15:43:52.275Z,10.90
2023-03-02T15:46:21.381Z,12.20
2023-03-02T15:48:52.127Z,14.10
2023-03-02T15:51:20.588Z,15.10
2023-03-02T15:53:49.009Z,12.50
2023-03-02T15:56:17.307Z,13.30
2023-03-02T15:58:49.228Z,14.30
2023-03-02T16:01:17.675Z,14.10
2023-03-02T16:03:45.908Z,14.50
2023-03-02T16:06:15.844Z,16.90
2023-03-02T16:08:44.147Z,15.20
2023-03-02T16:11:12.638Z,16.50
2023-03-02T16:13:40.910Z,14.10
2023-03-02T16:16:09.563Z,13.50
2023-03-02T16:18:37.772Z,15.10
2023-03-02T16:21:06.349Z,18.90
2023-03-02T16:23:34.529Z,16.10
2023-03-02T16:26:14.553Z,18.00
2023-03-02T16:28:42.874Z,13.70
2023-03-02T16:31:13.156Z,12.70
2023-03-02T16:33:41.551Z,17.00
2023-03-02T16:36:10.095Z,21.50
2023-03-02T16:38:38.688Z,37.40
2023-03-02T16:41:20.856Z,92.20
2023-03-02T16:43:53.733Z,96.80
2023-03-02T16:46:22.511Z,61.40
2023-03-02T16:48:50.974Z,50.80
2023-03-02T16:51:19.389Z,98.80
2023-03-02T16:53:47.636Z,155.90
2023-03-02T16:56:16.009Z,100.90
2023-03-02T16:58:44.083Z,100.80
2023-03-02T17:01:15.294Z,91.40
2023-03-02T17:03:44.316Z,116.10
2023-03-02T17:06:13.431Z,52.20
2023-03-02T17:08:41.593Z,40.80
2023-03-02T17:11:09.758Z,31.10
2023-03-02T17:13:38.040Z,41.00
2023-03-02T17:16:06.680Z,33.30
2023-03-02T17:18:35.125Z,24.00
2023-03-02T17:21:03.520Z,67.00
2023-03-02T17:23:32.105Z,66.90
2023-03-02T17:26:00.344Z,84.30
2023-03-02T17:28:28.368Z,83.00
2023-03-02T17:30:56.646Z,83.00
2023-03-02T17:33:24.826Z,70.00
2023-03-02T17:35:53.034Z,48.00
2023-03-02T17:38:21.109Z,60.80
2023-03-02T17:40:49.497Z,72.40
2023-03-02T17:43:17.856Z,64.70
2023-03-02T17:45:46.845Z,75.90
2023-03-02T17:48:15.028Z,70.40
2023-03-02T17:50:43.150Z,89.60
2023-03-02T17:53:11.297Z,71.90
2023-03-02T17:55:39.540Z,67.50
2023-03-02T17:58:07.712Z,90.30
2023-03-02T18:00:35.892Z,196.10
2023-03-02T18:03:04.202Z,294.90
2023-03-02T18:05:32.951Z,321.90
2023-03-02T18:08:01.034Z,237.90
2023-03-02T18:10:29.081Z,243.20
2023-03-02T18:12:57.184Z,127.40
2023-03-02T18:15:27.325Z,150.20
2023-03-02T18:17:55.462Z,251.50
2023-03-02T18:20:23.633Z,155.30
2023-03-02T18:22:55.001Z,64.40
2023-03-02T18:25:23.197Z,66.90
2023-03-02T18:27:51.624Z,103.90
2023-03-02T18:30:23.019Z,71.00
2023-03-02T18:32:51.565Z,53.60
2023-03-02T18:35:20.043Z,50.30
2023-03-02T18:37:48.408Z,46.50
2023-03-02T18:40:16.917Z,56.10
2023-03-02T18:42:44.987Z,61.10
2023-03-02T18:45:21.440Z,56.90
2023-03-02T18:47:49.640Z,50.10
2023-03-02T18:50:17.890Z,53.70
2023-03-02T18:52:46.061Z,46.20
2023-03-02T18:55:14.544Z,36.80
2023-03-02T18:57:42.619Z,26.60
2023-03-02T19:00:15.499Z,43.40
2023-03-02T19:02:43.592Z,31.70
2023-03-02T19:05:11.750Z,36.50
2023-03-02T19:07:40.229Z,29.60
2023-03-02T19:10:09.120Z,49.60
2023-03-02T19:12:37.473Z,50.20
2023-03-02T19:15:06.385Z,47.30
2023-03-02T19:17:34.869Z,35.00
2023-03-02T19:20:03.462Z,28.10
2023-03-02T19:22:33.009Z,37.30
2023-03-02T19:25:01.056Z,43.50
2023-03-02T19:27:31.882Z,44.10
2023-03-02T19:30:00.126Z,24.90
2023-03-02T19:32:28.564Z,42.60
2023-03-02T19:34:59.874Z,36.20
2023-03-02T19:37:28.072Z,40.90
2023-03-02T19:40:00.719Z,27.50
2023-03-02T19:42:31.246Z,38.50
2023-03-02T19:45:00.738Z,32.40
2023-03-02T19:47:29.947Z,23.50
2023-03-02T19:49:58.375Z,29.40
2023-03-02T19:52:26.642Z,28.50
2023-03-02T19:54:54.774Z,37.80
2023-03-02T19:57:25.122Z,36.20
2023-03-02T19:59:54.508Z,32.70
2023-03-02T20:02:23.069Z,27.80
2023-03-02T20:04:52.388Z,36.40
2023-03-02T20:07:20.464Z,26.30
2023-03-02T20:09:48.731Z,35.80
2023-03-02T20:12:17.312Z,24.70
2023-03-02T20:14:49.304Z,35.20
2023-03-02T20:17:17.552Z,22.40
2023-03-02T20:19:47.199Z,35.90
2023-03-02T20:22:15.529Z,33.60
2023-03-02T20:24:43.824Z,31.70
2023-03-02T20:27:12.677Z,28.80
2023-03-02T20:29:41.641Z,38.00
2023-03-02T20:32:10.491Z,32.20
2023-03-02T20:34:39.201Z,38.30
2023-03-02T20:37:07.443Z,33.00
2023-03-02T20:39:38.080Z,31.70
2023-03-02T20:42:06.764Z,37.50
2023-03-02T20:44:35.035Z,35.80
2023-03-02T20:47:08.251Z,31.20
2023-03-02T20:49:38.862Z,30.30
2023-03-02T20:52:07.437Z,33.10
2023-03-02T20:54:38.044Z,29.10
2023-03-02T20:57:07.924Z,38.00
2023-03-02T20:59:37.290Z,31.20
2023-03-02T21:02:05.706Z,36.70
2023-03-02T21:04:36.819Z,35.00
2023-03-02T21:07:07.978Z,41.70
2023-03-02T21:09:36.740Z,32.00
2023-03-02T21:12:05.736Z,37.50
2023-03-02T21:14:36.436Z,28.60
2023-03-02T21:17:04.929Z,44.10
2023-03-02T21:19:34.285Z,39.10
2023-03-02T21:22:02.705Z,29.10
2023-03-02T21:24:30.746Z,43.10
2023-03-02T21:27:00.449Z,35.90
2023-03-02T21:29:29.281Z,31.40
2023-03-02T21:31:59.962Z,42.20
2023-03-02T21:34:28.227Z,45.30
2023-03-02T21:36:56.378Z,29.10
2023-03-02T21:39:24.373Z,36.40
2023-03-02T21:41:52.510Z,44.00
2023-03-02T21:44:20.800Z,39.00
2023-03-02T21:46:49.032Z,32.60
2023-03-02T21:49:18.228Z,37.60
2023-03-02T21:51:48.836Z,28.70
2023-03-02T21:54:17.815Z,29.00
2023-03-02T21:56:46.081Z,35.50
2023-03-02T21:59:14.100Z,27.20
2023-03-02T22:01:42.390Z,27.80
2023-03-02T22:04:10.486Z,33.40
2023-03-02T22:06:38.824Z,34.80
2023-03-02T22:09:06.935Z,39.40
2023-03-02T22:11:36.900Z,22.60
2023-03-02T22:14:13.783Z,24.30
2023-03-02T22:16:43.030Z,32.60
2023-03-02T22:19:21.440Z,27.10
2023-03-02T22:21:49.931Z,29.40
2023-03-02T22:24:29.270Z,33.20
2023-03-02T22:27:01.326Z,33.70
2023-03-02T22:29:37.073Z,30.30
2023-03-02T22:32:24.144Z,28.50
2023-03-02T22:34:53.905Z,30.40
2023-03-02T22:37:23.671Z,34.40
2023-03-02T22:39:54.761Z,36.40
2023-03-02T22:42:24.070Z,26.70
2023-03-02T22:45:15.071Z,28.30
2023-03-02T22:47:44.058Z,36.90
2023-03-02T22:50:30.302Z,23.30
2023-03-02T22:52:58.638Z,24.80
2023-03-02T22:55:43.223Z,29.70
2023-03-02T22:58:39.219Z,31.30
2023-03-02T23:01:17.291Z,28.00
2023-03-02T23:03:46.180Z,33.90
2023-03-02T23:06:31.514Z,30.90
2023-03-02T23:09:01.881Z,32.90
2023-03-02T23:11:33.876Z,32.70
2023-03-02T23:14:02.369Z,35.90
2023-03-02T23:16:34.847Z,34.10
2023-03-02T23:19:03.314Z,25.90
2023-03-02T23:21:39.492Z,36.40
2023-03-02T23:24:08.265Z,33.30
2023-03-02T23:26:36.642Z,23.70
2023-03-02T23:29:05.023Z,27.70
2023-03-02T23:31:33.121Z,30.90
2023-03-02T23:34:01.189Z,34.20
2023-03-02T23:36:30.990Z,35.30
2023-03-02T23:38:59.250Z,32.60
2023-03-02T23:41:27.327Z,24.10
2023-03-02T23:43:55.341Z,27.40
2023-03-02T23:46:23.484Z,22.00
2023-03-02T23:48:51.946Z,28.10
2023-03-02T23:51:20.042Z,26.80
2023-03-02T23:53:48.107Z,30.20
2023-03-02T23:56:16.353Z,21.40
2023-03-02T23:58:44.274Z,28.10
